Airfield :
LOGIN :

Register | Disclaimer

   EN    FR    IT 

 










Legend :    VFR   Marginal VFR   IFR   Intensive IFR   Very Intensive IFR
Visi :
Ceiling :
>= 8 km
>= 3000ft
5 to 8 km
1000 to 3000 ft
1500m to 5 km
500 to 1000 ft
800 to 1500m
200 to 500 ft
< 800m
< 200 ft
Symbols :   Thunderstorms  Fog  Heavy snow  Heavy precipitations  Wind > 20 kt
SIGMETs :     Misc.  Thunderstorms  Icing  Turbulence  Mountain Waves  Volcanic Ashes







- Airport Elevation : 1234 ft
- IATA code : LUX


ELLX - Luxembourg Findel

CURRENT METAR :
  • 100850Z 27011KT 9999 FEW007 SCT020 BKN038 03/02 Q1022 NOSIG

EXPIRED METARs :
  • 100820Z 28010KT 9999 FEW018 SCT025 03/02 Q1022 NOSIG
  • 100750Z 28010KT 9999 FEW017 SCT020 BKN025 03/02 Q1022 NOSIG
  • 100720Z 27009KT 9999 FEW011 SCT018 BKN030 03/02 Q1022 NOSIG
  • 100650Z 27008KT 9999 FEW007 SCT022 BKN032 04/02 Q1022 NOSIG
  • 100620Z 28009KT 250V320 9999 FEW017 SCT025 BKN042 03/02 Q1021 NOSIG

TAF TAF ELLX
Valid from the 10 at 06:00 until the 11 at 12:00 UTC


100500Z 1006/1112 28010G20KT 9999 BKN030
PROB40
TEMPO 1006/1018 -SHRA BKN015
BECMG 1018/1020 28008KT
TEMPO 1023/1107 3000 BR BKN003
ATIS : +352 4798 27300
Met : +352 4798 27010 / 27050
No reported NOTAMs for that airfield.



MET'MAP, your aeronautical weather chart ! - Copyright ORBIFLY December 2007 - Disclaimer

ORBIFLY MET'MAP TEAM :

Programming & Development : Alexandra Zaïnal
Concept & Development : Baudouin d'Aumeries
Co-Development & Prog : Marc-Olivier Méhu
Technical & hardware support : Manuel Goepfert

Contact : metmap@orbifly.com




SOURCES & CREDITS :

   NOAA